Time;durP1;ratioP1;P1;durP2;ratioP2;P2;SDS_P1;SDS_P2;PMS_P1;PMS_P2;Temp;Humidity;BMP_temperature;BMP_pressure;BME280_temperature;BME280_humidity;BME280_pressure;Samples;Min_cycle;Max_cycle;Signal;HPM_P1;HPM_P2
2022/12/30 00:00:54;;;;;;;48.67;27.27;;;;;;;;;;5036734;28;20549;-79
2022/12/30 00:03:20;;;;;;;56.45;30.25;;;;;;;;;;5036186;28;20054;-80
2022/12/30 00:05:46;;;;;;;48.00;28.45;;;;;;;;;;5042142;28;20037;-81
2022/12/30 00:10:57;;;;;;;45.05;24.00;;;;;;;;;;5022054;28;20033;-81
2022/12/30 00:33:08;;;;;;;43.08;26.08;;;;;;;;;;5025044;28;20040;-80
2022/12/30 00:35:35;;;;;;;47.67;28.88;;;;;;;;;;5025635;28;20033;-79
2022/12/30 00:38:01;;;;;;;44.28;26.08;;;;;;;;;;5024947;28;20030;-80
2022/12/30 00:40:27;;;;;;;45.53;29.65;;;;;;;;;;5023526;28;20022;-80
2022/12/30 00:43:08;;;;;;;49.28;27.05;;;;;;;;;;5023489;28;20030;-81
2022/12/30 00:45:34;;;;;;;43.72;24.92;;;;;;;;;;5022306;28;20041;-81
2022/12/30 00:48:00;;;;;;;43.63;26.98;;;;;;;;;;5024083;28;20076;-80
2022/12/30 00:56:14;;;;;;;44.95;28.10;;;;;;;;;;5024432;28;20048;-80
2022/12/30 00:58:40;;;;;;;42.85;26.45;;;;;;;;;;5022290;28;20055;-80
2022/12/30 01:01:06;;;;;;;46.88;25.95;;;;;;;;;;5024390;28;20090;-79
2022/12/30 01:03:32;;;;;;;45.30;25.35;;;;;;;;;;5024761;28;20013;-81
2022/12/30 01:05:58;;;;;;;40.67;25.80;;;;;;;;;;5026245;28;20030;-80
2022/12/30 01:08:24;;;;;;;43.67;24.33;;;;;;;;;;5024109;28;20052;-81
2022/12/30 01:10:50;;;;;;;42.50;25.20;;;;;;;;;;5024231;28;20038;-80
2022/12/30 01:13:16;;;;;;;44.45;26.67;;;;;;;;;;5024220;28;20476;-81
2022/12/30 01:15:42;;;;;;;42.97;24.33;;;;;;;;;;5022354;28;20419;-80
2022/12/30 01:18:08;;;;;;;43.83;24.50;;;;;;;;;;5016228;28;20045;-80
2022/12/30 01:20:35;;;;;;;41.28;25.70;;;;;;;;;;5021641;28;20026;-81
2022/12/30 01:23:01;;;;;;;47.70;26.75;;;;;;;;;;5022323;28;20034;-81
2022/12/30 01:25:27;;;;;;;45.67;26.30;;;;;;;;;;5023160;28;20026;-81
2022/12/30 01:27:53;;;;;;;43.35;25.73;;;;;;;;;;5024064;28;20515;-81
2022/12/30 01:30:19;;;;;;;45.80;26.13;;;;;;;;;;5023631;28;20411;-81
2022/12/30 01:32:45;;;;;;;44.08;24.95;;;;;;;;;;5023950;28;20033;-81
2022/12/30 01:35:12;;;;;;;43.13;25.35;;;;;;;;;;5021400;28;20018;-80
2022/12/30 01:37:38;;;;;;;43.30;24.25;;;;;;;;;;5019782;28;20048;-81
2022/12/30 01:40:04;;;;;;;45.15;25.80;;;;;;;;;;5023558;28;20491;-81
2022/12/30 01:42:36;;;;;;;42.80;23.63;;;;;;;;;;5022836;28;20026;-80
2022/12/30 01:45:14;;;;;;;49.20;26.98;;;;;;;;;;5023327;28;20052;-80
2022/12/30 01:47:53;;;;;;;47.90;27.67;;;;;;;;;;5021340;28;20033;-80
2022/12/30 01:50:42;;;;;;;52.20;27.27;;;;;;;;;;5012514;28;20076;-80
2022/12/30 01:53:13;;;;;;;46.45;25.08;;;;;;;;;;5016728;28;20115;-80
2022/12/30 01:55:51;;;;;;;57.78;30.15;;;;;;;;;;5008175;28;20030;-81
2022/12/30 01:58:21;;;;;;;51.05;29.40;;;;;;;;;;5021842;28;20030;-80
2022/12/30 02:00:47;;;;;;;60.67;32.47;;;;;;;;;;5023076;28;20022;-81
2022/12/30 02:03:13;;;;;;;49.53;27.58;;;;;;;;;;5023137;28;20100;-82
2022/12/30 02:05:41;;;;;;;53.50;32.88;;;;;;;;;;5021871;28;20033;-81
2022/12/30 02:08:12;;;;;;;52.58;30.65;;;;;;;;;;5022634;28;20034;-81
2022/12/30 02:10:39;;;;;;;50.75;28.65;;;;;;;;;;5022118;28;20558;-80
2022/12/30 02:13:05;;;;;;;51.40;28.15;;;;;;;;;;5019060;28;20041;-80
2022/12/30 02:15:37;;;;;;;55.17;29.65;;;;;;;;;;5020800;28;20022;-80
2022/12/30 02:18:26;;;;;;;55.17;29.47;;;;;;;;;;5021861;28;20041;-80
2022/12/30 02:21:04;;;;;;;55.03;29.20;;;;;;;;;;5014409;28;20632;-80
2022/12/30 02:23:30;;;;;;;55.65;28.70;;;;;;;;;;5021438;28;20497;-80
2022/12/30 02:25:56;;;;;;;54.72;28.15;;;;;;;;;;5019774;28;20058;-80
2022/12/30 02:28:25;;;;;;;59.10;29.13;;;;;;;;;;5022129;28;20030;-81
2022/12/30 02:31:04;;;;;;;55.97;29.17;;;;;;;;;;5019636;28;20034;-81
2022/12/30 02:33:34;;;;;;;60.60;30.83;;;;;;;;;;5019337;28;20524;-81
2022/12/30 02:36:09;;;;;;;63.05;30.25;;;;;;;;;;5021418;28;20033;-82
2022/12/30 02:38:42;;;;;;;61.90;32.67;;;;;;;;;;5022181;28;20492;-79
2022/12/30 02:46:55;;;;;;;66.68;34.05;;;;;;;;;;5011434;28;20052;-81
2022/12/30 02:49:21;;;;;;;60.60;29.95;;;;;;;;;;5009964;28;20026;-80
2022/12/30 02:54:33;;;;;;;54.47;28.60;;;;;;;;;;5021908;28;20403;-81
2022/12/30 02:56:59;;;;;;;53.92;28.48;;;;;;;;;;5021002;28;20448;-80
2022/12/30 03:05:24;;;;;;;67.80;30.90;;;;;;;;;;5001819;28;20057;-81
2022/12/30 03:08:02;;;;;;;60.50;27.10;;;;;;;;;;5013876;28;20036;-81
2022/12/30 03:13:22;;;;;;;64.93;29.23;;;;;;;;;;5021607;28;20088;-82
2022/12/30 03:16:03;;;;;;;69.22;32.05;;;;;;;;;;5008741;28;20072;-81
2022/12/30 03:18:29;;;;;;;65.45;29.95;;;;;;;;;;5013944;28;20020;-81
2022/12/30 03:20:55;;;;;;;62.17;29.77;;;;;;;;;;5022055;28;20080;-81
2022/12/30 03:28:54;;;;;;;60.90;29.67;;;;;;;;;;5006678;28;20045;-81
2022/12/30 03:31:21;;;;;;;63.40;28.63;;;;;;;;;;5021688;28;20516;-81
2022/12/30 03:33:47;;;;;;;60.53;30.92;;;;;;;;;;5020888;28;20026;-82
2022/12/30 03:36:15;;;;;;;64.22;28.77;;;;;;;;;;5020125;28;20030;-81
2022/12/30 03:38:43;;;;;;;58.35;27.92;;;;;;;;;;5020220;28;20033;-81
2022/12/30 03:41:10;;;;;;;62.65;29.83;;;;;;;;;;5020234;28;20490;-81
2022/12/30 03:43:36;;;;;;;56.85;28.50;;;;;;;;;;5021404;28;20072;-81
2022/12/30 03:46:03;;;;;;;59.72;28.50;;;;;;;;;;5020277;28;20034;-82
2022/12/30 03:48:29;;;;;;;54.58;28.08;;;;;;;;;;5020591;28;20030;-82
2022/12/30 03:50:55;;;;;;;64.40;27.15;;;;;;;;;;5020263;28;20092;-80
2022/12/30 03:53:21;;;;;;;56.33;30.02;;;;;;;;;;5018533;28;20022;-81
2022/12/30 03:55:47;;;;;;;61.20;27.25;;;;;;;;;;5021604;28;20030;-79
2022/12/30 03:58:13;;;;;;;52.88;28.02;;;;;;;;;;5007134;28;20492;-81
2022/12/30 04:00:39;;;;;;;65.03;29.25;;;;;;;;;;5001555;28;20082;-81
2022/12/30 04:03:05;;;;;;;53.25;25.42;;;;;;;;;;5020547;28;20022;-81
2022/12/30 04:05:31;;;;;;;59.15;25.48;;;;;;;;;;5021102;28;20026;-81
2022/12/30 04:07:57;;;;;;;53.67;26.13;;;;;;;;;;5020133;28;20041;-81
2022/12/30 04:10:23;;;;;;;56.15;24.90;;;;;;;;;;5020582;28;20638;-81
2022/12/30 04:12:49;;;;;;;58.05;28.08;;;;;;;;;;5019038;28;20036;-81
2022/12/30 04:15:15;;;;;;;58.80;29.05;;;;;;;;;;5009830;28;20026;-81
2022/12/30 04:17:41;;;;;;;50.42;27.63;;;;;;;;;;5019183;28;20041;-80
2022/12/30 04:20:07;;;;;;;57.50;26.30;;;;;;;;;;5019993;28;20452;-81
2022/12/30 04:22:33;;;;;;;64.72;29.65;;;;;;;;;;5024443;28;20026;-81
2022/12/30 04:24:59;;;;;;;55.45;24.80;;;;;;;;;;5026045;28;20026;-82
2022/12/30 04:27:25;;;;;;;46.28;25.02;;;;;;;;;;5026363;28;20034;-80
2022/12/30 04:29:51;;;;;;;55.00;26.85;;;;;;;;;;5028839;28;20049;-81
2022/12/30 04:32:17;;;;;;;52.03;25.98;;;;;;;;;;5031541;28;20480;-81
2022/12/30 04:34:43;;;;;;;57.63;25.80;;;;;;;;;;5023088;28;20065;-81
2022/12/30 04:37:09;;;;;;;46.85;24.42;;;;;;;;;;5031319;28;20075;-79
2022/12/30 04:39:35;;;;;;;49.83;25.25;;;;;;;;;;5033033;28;20036;-81
2022/12/30 04:42:01;;;;;;;47.65;24.77;;;;;;;;;;5027826;28;20033;-81
2022/12/30 04:44:27;;;;;;;56.28;25.60;;;;;;;;;;5043848;28;20021;-80
2022/12/30 04:46:53;;;;;;;52.10;23.10;;;;;;;;;;5036627;28;20390;-81
2022/12/30 04:49:19;;;;;;;48.33;24.42;;;;;;;;;;5021785;28;20044;-80
2022/12/30 04:51:45;;;;;;;51.58;25.42;;;;;;;;;;5004327;28;20038;-80
2022/12/30 04:54:11;;;;;;;52.38;27.10;;;;;;;;;;5015333;28;20092;-81
2022/12/30 04:56:37;;;;;;;53.10;28.50;;;;;;;;;;5022962;28;20480;-81
2022/12/30 04:59:03;;;;;;;48.38;25.70;;;;;;;;;;5022620;28;20049;-81
2022/12/30 05:01:29;;;;;;;52.53;24.38;;;;;;;;;;5024081;28;20021;-81
2022/12/30 05:03:55;;;;;;;50.08;26.35;;;;;;;;;;5005086;28;20099;-80
2022/12/30 05:06:21;;;;;;;50.42;27.23;;;;;;;;;;5018890;28;20026;-82
2022/12/30 05:08:47;;;;;;;53.08;28.23;;;;;;;;;;5024395;28;20117;-81
2022/12/30 05:11:13;;;;;;;47.97;26.45;;;;;;;;;;5024261;28;20483;-81
2022/12/30 05:13:39;;;;;;;54.50;27.92;;;;;;;;;;5039686;28;20067;-81
2022/12/30 05:16:05;;;;;;;58.30;28.33;;;;;;;;;;5024001;28;20056;-81
2022/12/30 05:18:31;;;;;;;61.33;28.20;;;;;;;;;;5022957;28;20117;-81
2022/12/30 05:20:57;;;;;;;62.33;28.42;;;;;;;;;;5023653;28;20022;-81
2022/12/30 05:26:13;;;;;;;57.17;28.50;;;;;;;;;;5023416;28;20041;-81
2022/12/30 05:28:39;;;;;;;59.05;27.55;;;;;;;;;;5019333;28;20026;-82
2022/12/30 05:31:05;;;;;;;69.65;30.83;;;;;;;;;;5019727;28;20433;-80
2022/12/30 05:33:31;;;;;;;55.92;26.15;;;;;;;;;;5021663;28;20029;-82
2022/12/30 05:35:58;;;;;;;59.25;26.63;;;;;;;;;;5022712;28;20033;-82
2022/12/30 05:38:24;;;;;;;59.30;27.98;;;;;;;;;;5022399;28;20048;-82
2022/12/30 05:40:50;;;;;;;56.28;26.38;;;;;;;;;;5021326;28;20025;-81
2022/12/30 05:43:18;;;;;;;61.13;27.33;;;;;;;;;;5006155;28;20090;-80
2022/12/30 05:45:44;;;;;;;54.72;28.05;;;;;;;;;;5021752;28;20484;-82
2022/12/30 05:48:10;;;;;;;60.67;27.52;;;;;;;;;;5021987;28;20068;-81
2022/12/30 05:50:36;;;;;;;53.85;27.02;;;;;;;;;;5021107;28;20036;-82
2022/12/30 05:53:02;;;;;;;52.88;25.25;;;;;;;;;;5009701;28;20057;-81
2022/12/30 05:55:28;;;;;;;51.78;24.70;;;;;;;;;;5016933;28;20034;-82
2022/12/30 05:57:54;;;;;;;53.72;26.10;;;;;;;;;;5022518;28;20434;-81
2022/12/30 06:00:20;;;;;;;46.55;24.15;;;;;;;;;;5019936;28;20439;-81
2022/12/30 06:02:46;;;;;;;49.70;24.73;;;;;;;;;;5021678;28;20022;-82
2022/12/30 06:05:13;;;;;;;49.95;26.08;;;;;;;;;;5020751;28;20030;-81
2022/12/30 06:07:39;;;;;;;44.05;23.52;;;;;;;;;;5022500;28;20249;-82
2022/12/30 06:10:05;;;;;;;50.03;24.98;;;;;;;;;;5016238;28;20116;-82
2022/12/30 06:12:31;;;;;;;45.78;24.48;;;;;;;;;;5018752;28;21433;-81
2022/12/30 06:14:57;;;;;;;48.80;24.80;;;;;;;;;;5018971;28;20407;-82
2022/12/30 06:17:23;;;;;;;49.22;24.40;;;;;;;;;;5019046;28;20042;-80
2022/12/30 06:19:49;;;;;;;45.33;23.48;;;;;;;;;;5016897;28;20026;-81
2022/12/30 06:22:15;;;;;;;39.33;23.90;;;;;;;;;;5017914;28;20030;-82
2022/12/30 06:24:41;;;;;;;41.00;23.63;;;;;;;;;;5019398;28;20093;-81
2022/12/30 06:27:07;;;;;;;46.00;25.55;;;;;;;;;;5019242;28;20404;-81
2022/12/30 06:29:33;;;;;;;41.53;24.13;;;;;;;;;;5017836;28;20038;-81
2022/12/30 06:31:59;;;;;;;43.58;24.33;;;;;;;;;;5019326;28;20026;-82
2022/12/30 06:34:26;;;;;;;41.67;24.50;;;;;;;;;;5016790;28;20581;-82
2022/12/30 06:36:52;;;;;;;38.58;24.00;;;;;;;;;;5017424;28;20029;-81
2022/12/30 06:39:18;;;;;;;42.78;26.67;;;;;;;;;;5020344;28;20089;-81
2022/12/30 06:41:44;;;;;;;41.55;24.42;;;;;;;;;;5027056;28;20080;-82
2022/12/30 06:44:10;;;;;;;45.25;25.35;;;;;;;;;;5031053;28;20029;-81
2022/12/30 06:46:36;;;;;;;43.08;23.88;;;;;;;;;;5017370;28;20034;-81
2022/12/30 06:49:02;;;;;;;42.13;23.33;;;;;;;;;;5017173;28;20034;-82
2022/12/30 06:51:28;;;;;;;41.78;23.63;;;;;;;;;;5018035;28;20468;-79
2022/12/30 06:53:54;;;;;;;38.90;23.05;;;;;;;;;;5011461;28;20030;-82
2022/12/30 06:56:20;;;;;;;40.25;24.40;;;;;;;;;;5016021;28;20037;-82
2022/12/30 06:58:46;;;;;;;43.75;24.95;;;;;;;;;;5016008;28;20033;-81
2022/12/30 07:01:13;;;;;;;39.90;23.90;;;;;;;;;;5016773;28;20050;-81
2022/12/30 07:03:39;;;;;;;41.13;23.05;;;;;;;;;;5018917;28;20542;-81
2022/12/30 07:06:05;;;;;;;42.80;24.92;;;;;;;;;;5017546;28;20087;-81
2022/12/30 07:08:32;;;;;;;49.03;27.48;;;;;;;;;;5015185;28;20026;-82
2022/12/30 07:10:58;;;;;;;45.55;24.65;;;;;;;;;;5015905;28;20549;-81
2022/12/30 07:13:25;;;;;;;46.67;25.92;;;;;;;;;;5015135;28;20478;-82
2022/12/30 07:15:52;;;;;;;44.17;24.83;;;;;;;;;;5017370;28;20034;-82
2022/12/30 07:18:18;;;;;;;48.85;26.35;;;;;;;;;;5017890;28;20038;-82
2022/12/30 07:20:44;;;;;;;41.60;23.42;;;;;;;;;;5016522;28;20037;-79
2022/12/30 07:23:10;;;;;;;44.42;24.05;;;;;;;;;;5017330;28;20057;-82
2022/12/30 07:25:36;;;;;;;40.78;24.10;;;;;;;;;;5016037;28;20030;-80
2022/12/30 07:28:03;;;;;;;45.78;26.23;;;;;;;;;;5015090;28;20094;-82
2022/12/30 07:30:30;;;;;;;45.70;27.48;;;;;;;;;;5015649;28;20030;-80
2022/12/30 07:32:56;;;;;;;44.53;24.48;;;;;;;;;;5015378;28;20022;-82
2022/12/30 07:35:22;;;;;;;45.78;25.92;;;;;;;;;;5014395;28;20457;-81
2022/12/30 07:37:49;;;;;;;39.78;24.38;;;;;;;;;;5005880;28;20025;-82
2022/12/30 07:40:18;;;;;;;36.53;21.88;;;;;;;;;;5012958;28;20046;-84
2022/12/30 07:42:44;;;;;;;43.47;25.30;;;;;;;;;;5016271;28;20026;-82
2022/12/30 07:45:10;;;;;;;41.45;22.73;;;;;;;;;;5016562;28;20457;-82
2022/12/30 07:47:42;;;;;;;42.90;23.92;;;;;;;;;;5016456;28;20022;-81
2022/12/30 07:50:09;;;;;;;38.85;23.38;;;;;;;;;;5012883;28;20373;-82
2022/12/30 07:52:35;;;;;;;37.53;23.00;;;;;;;;;;5010437;28;20024;-82
2022/12/30 07:55:01;;;;;;;39.38;23.67;;;;;;;;;;5007778;28;20091;-81
2022/12/30 07:57:28;;;;;;;43.83;25.58;;;;;;;;;;5017159;28;20018;-81
2022/12/30 07:59:54;;;;;;;43.92;25.70;;;;;;;;;;5012633;28;20025;-82
2022/12/30 08:02:20;;;;;;;45.78;25.20;;;;;;;;;;5015673;28;20029;-82
2022/12/30 08:04:47;;;;;;;49.65;26.73;;;;;;;;;;5019681;28;20404;-80
2022/12/30 08:07:15;;;;;;;50.45;27.00;;;;;;;;;;5018489;28;20036;-83
2022/12/30 08:09:41;;;;;;;49.55;26.98;;;;;;;;;;5019639;28;20061;-82
2022/12/30 08:12:07;;;;;;;48.45;27.50;;;;;;;;;;5020530;28;20037;-82
2022/12/30 08:14:33;;;;;;;47.95;27.80;;;;;;;;;;5018795;28;20028;-83
2022/12/30 08:16:59;;;;;;;50.13;26.85;;;;;;;;;;5020715;28;20419;-81
2022/12/30 08:19:25;;;;;;;53.50;26.80;;;;;;;;;;5021092;28;20026;-82
2022/12/30 08:21:52;;;;;;;42.85;26.08;;;;;;;;;;5020170;28;20285;-82
2022/12/30 08:24:18;;;;;;;53.17;28.27;;;;;;;;;;5020563;28;20026;-81
2022/12/30 08:26:44;;;;;;;53.95;28.27;;;;;;;;;;5018849;28;20068;-82
2022/12/30 08:29:10;;;;;;;48.15;25.98;;;;;;;;;;5019870;28;20033;-80
2022/12/30 08:31:36;;;;;;;47.85;27.42;;;;;;;;;;5020191;28;20310;-82
2022/12/30 08:34:02;;;;;;;47.15;26.65;;;;;;;;;;5020480;28;20085;-82
2022/12/30 08:36:29;;;;;;;51.17;27.10;;;;;;;;;;5023523;28;20034;-81
2022/12/30 08:38:57;;;;;;;40.90;23.67;;;;;;;;;;5020406;28;20081;-83
2022/12/30 08:41:34;;;;;;;46.97;25.63;;;;;;;;;;5019497;28;20729;-82
2022/12/30 08:44:01;;;;;;;40.72;25.23;;;;;;;;;;5019378;28;20077;-82
2022/12/30 08:46:28;;;;;;;41.67;23.30;;;;;;;;;;5019044;28;20053;-82
2022/12/30 08:48:54;;;;;;;46.05;26.00;;;;;;;;;;5018662;28;20064;-83
2022/12/30 08:51:20;;;;;;;42.33;24.05;;;;;;;;;;5020291;28;20026;-81
2022/12/30 08:53:46;;;;;;;47.55;25.95;;;;;;;;;;5018941;28;20061;-82
2022/12/30 08:56:15;;;;;;;48.50;26.40;;;;;;;;;;5017078;28;20030;-80
2022/12/30 08:58:42;;;;;;;45.22;24.88;;;;;;;;;;5018290;28;20029;-81
2022/12/30 09:01:10;;;;;;;46.65;26.00;;;;;;;;;;5018054;28;20026;-80
2022/12/30 09:03:37;;;;;;;41.03;23.35;;;;;;;;;;5017985;28;20098;-82
2022/12/30 09:06:03;;;;;;;45.45;23.60;;;;;;;;;;5016980;28;20022;-79
2022/12/30 09:08:29;;;;;;;43.85;24.30;;;;;;;;;;5016453;28;20022;-81
2022/12/30 09:10:59;;;;;;;45.13;25.58;;;;;;;;;;5014878;28;20026;-82
2022/12/30 09:13:26;;;;;;;44.63;25.25;;;;;;;;;;4997165;28;20121;-81
2022/12/30 09:15:52;;;;;;;36.55;20.98;;;;;;;;;;5002559;28;20063;-83
2022/12/30 09:18:18;;;;;;;47.13;23.45;;;;;;;;;;5018491;28;20065;-83
2022/12/30 09:20:44;;;;;;;45.55;23.08;;;;;;;;;;5018536;28;20032;-81
2022/12/30 09:23:10;;;;;;;42.97;22.17;;;;;;;;;;5016502;28;20030;-80
2022/12/30 09:25:36;;;;;;;41.72;21.58;;;;;;;;;;5017742;28;20048;-79
2022/12/30 09:28:02;;;;;;;49.17;22.77;;;;;;;;;;5016554;28;20018;-81
2022/12/30 09:30:28;;;;;;;46.25;20.77;;;;;;;;;;5017090;28;20033;-81
2022/12/30 09:32:54;;;;;;;68.72;23.67;;;;;;;;;;5017939;28;20057;-81
2022/12/30 09:35:20;;;;;;;48.20;22.92;;;;;;;;;;5018362;28;20030;-82
2022/12/30 09:37:46;;;;;;;55.03;24.10;;;;;;;;;;5017680;28;20033;-80
2022/12/30 09:40:20;;;;;;;47.97;23.35;;;;;;;;;;5016846;28;20065;-82
2022/12/30 09:45:41;;;;;;;63.55;24.98;;;;;;;;;;5017612;28;20412;-82
2022/12/30 09:48:11;;;;;;;50.70;22.23;;;;;;;;;;5017609;28;20034;-81
2022/12/30 09:50:40;;;;;;;54.80;25.17;;;;;;;;;;5017919;28;20364;-82
2022/12/30 09:53:11;;;;;;;52.95;23.67;;;;;;;;;;5017934;28;20093;-82
2022/12/30 09:56:00;;;;;;;47.33;22.40;;;;;;;;;;5017148;28;20145;-82
2022/12/30 09:58:34;;;;;;;51.00;22.17;;;;;;;;;;5014294;28;20038;-82
2022/12/30 10:01:08;;;;;;;52.70;24.02;;;;;;;;;;5017116;28;20022;-81
2022/12/30 10:03:34;;;;;;;57.28;24.05;;;;;;;;;;5017350;28;20763;-82
2022/12/30 10:06:06;;;;;;;62.50;26.17;;;;;;;;;;5015978;28;20034;-81
2022/12/30 10:08:54;;;;;;;56.78;27.17;;;;;;;;;;5017619;28;20041;-80
2022/12/30 10:11:41;;;;;;;55.33;25.95;;;;;;;;;;5016158;28;20033;-80
2022/12/30 10:14:22;;;;;;;65.90;25.92;;;;;;;;;;4996282;28;20400;-81
2022/12/30 10:17:03;;;;;;;54.30;24.23;;;;;;;;;;5016520;28;20364;-80
2022/12/30 10:19:29;;;;;;;50.20;25.27;;;;;;;;;;5014304;28;20049;-81
2022/12/30 10:22:02;;;;;;;49.95;22.90;;;;;;;;;;5016163;28;20030;-80
2022/12/30 10:24:31;;;;;;;61.15;24.63;;;;;;;;;;5015614;28;20025;-81
2022/12/30 10:26:57;;;;;;;68.88;27.25;;;;;;;;;;5016640;28;20092;-81
2022/12/30 10:29:33;;;;;;;65.95;28.73;;;;;;;;;;5017480;28;20026;-80
2022/12/30 10:32:16;;;;;;;60.38;27.85;;;;;;;;;;5017078;28;20025;-82
2022/12/30 10:34:42;;;;;;;56.65;26.02;;;;;;;;;;5017248;28;20396;-82
2022/12/30 10:37:14;;;;;;;61.35;26.80;;;;;;;;;;5015993;28;20025;-80
2022/12/30 10:39:50;;;;;;;63.95;27.52;;;;;;;;;;5015650;28;20030;-82
2022/12/30 10:42:16;;;;;;;68.20;27.70;;;;;;;;;;5017193;28;20033;-82
2022/12/30 10:44:51;;;;;;;61.30;26.73;;;;;;;;;;5016171;28;20021;-80
2022/12/30 10:47:37;;;;;;;53.35;25.08;;;;;;;;;;5016981;28;20022;-82
2022/12/30 10:50:14;;;;;;;61.13;25.85;;;;;;;;;;5013378;28;20045;-81
2022/12/30 10:52:40;;;;;;;60.65;25.35;;;;;;;;;;5018672;28;20022;-82
2022/12/30 10:55:15;;;;;;;56.20;26.15;;;;;;;;;;5016807;28;20740;-83
2022/12/30 10:57:41;;;;;;;58.13;27.17;;;;;;;;;;5015385;28;20092;-81
2022/12/30 11:00:07;;;;;;;62.30;26.63;;;;;;;;;;5016605;28;20053;-82
2022/12/30 11:02:37;;;;;;;60.33;28.40;;;;;;;;;;5015366;28;20030;-81
2022/12/30 11:05:23;;;;;;;71.15;31.17;;;;;;;;;;5016082;28;20026;-80
2022/12/30 11:07:56;;;;;;;62.92;29.65;;;;;;;;;;5022073;28;20038;-81
2022/12/30 11:10:22;;;;;;;;;;;;;;;;;;5021944;28;20030;-80
2022/12/30 11:15:48;;;;;;;54.97;23.73;;;;;;;;;;5021996;28;20041;-81
2022/12/30 11:18:16;;;;;;;51.70;24.52;;;;;;;;;;5022009;28;20038;-81
2022/12/30 11:20:42;;;;;;;57.53;27.40;;;;;;;;;;5021136;28;20073;-80
2022/12/30 11:23:40;;;;;;;51.40;25.90;;;;;;;;;;5023355;28;20041;-81
2022/12/30 11:26:08;;;;;;;53.13;25.00;;;;;;;;;;4982825;28;20077;-81
2022/12/30 11:28:57;;;;;;;54.40;27.25;;;;;;;;;;4986548;28;20042;-81
2022/12/30 11:31:30;;;;;;;61.42;27.73;;;;;;;;;;4989448;28;20065;-79
2022/12/30 11:33:58;;;;;;;55.33;25.38;;;;;;;;;;5003883;28;20117;-81
2022/12/30 11:36:27;;;;;;;58.33;27.25;;;;;;;;;;5002937;28;20030;-81
2022/12/30 11:38:54;;;;;;;53.88;24.67;;;;;;;;;;5003822;28;20061;-81
2022/12/30 11:41:21;;;;;;;51.30;26.85;;;;;;;;;;5004395;28;20034;-81
2022/12/30 11:43:49;;;;;;;53.38;26.02;;;;;;;;;;5003334;28;20034;-81
2022/12/30 11:46:16;;;;;;;57.08;26.67;;;;;;;;;;5002332;28;20038;-81
2022/12/30 11:48:52;;;;;;;49.25;25.50;;;;;;;;;;5007858;28;20105;-81
2022/12/30 11:51:20;;;;;;;59.33;27.13;;;;;;;;;;5003807;28;20677;-81
2022/12/30 11:53:46;;;;;;;51.42;26.10;;;;;;;;;;4996972;28;20038;-81
2022/12/30 11:56:12;;;;;;;51.78;24.92;;;;;;;;;;5003581;28;20085;-81
2022/12/30 11:58:39;;;;;;;57.97;28.60;;;;;;;;;;5004295;28;20601;-81
2022/12/30 12:01:10;;;;;;;53.88;26.25;;;;;;;;;;5009016;28;20188;-81
2022/12/30 12:03:48;;;;;;;42.40;23.13;;;;;;;;;;5022491;28;20379;-81
2022/12/30 12:06:15;;;;;;;46.22;25.38;;;;;;;;;;5023235;28;20022;-81
2022/12/30 12:09:14;;;;;;;56.38;26.40;;;;;;;;;;5023545;28;20029;-81
2022/12/30 12:11:43;;;;;;;47.03;23.50;;;;;;;;;;4984221;28;20046;-81
2022/12/30 12:14:17;;;;;;;45.20;26.35;;;;;;;;;;4967408;28;20058;-79
2022/12/30 12:16:49;;;;;;;47.00;24.90;;;;;;;;;;4985736;28;20054;-79
2022/12/30 12:19:38;;;;;;;51.30;26.77;;;;;;;;;;4996562;28;20046;-80
2022/12/30 12:22:11;;;;;;;52.55;24.80;;;;;;;;;;4974840;28;20053;-81
2022/12/30 12:24:36;;;;;;;;;;;;;;;;;;4985978;28;20082;-80
2022/12/30 12:27:06;;;;;;;53.33;26.17;;;;;;;;;;4989682;28;19933;-78
2022/12/30 12:29:33;;;;;;;54.88;27.23;;;;;;;;;;4982697;28;20031;-81
2022/12/30 12:32:18;;;;;;;52.05;27.30;;;;;;;;;;4985558;28;20034;-80
2022/12/30 12:34:50;;;;;;;49.40;26.60;;;;;;;;;;5000522;28;20444;-80
2022/12/30 12:37:16;;;;;;;54.65;28.08;;;;;;;;;;5000616;28;20030;-80
2022/12/30 12:39:42;;;;;;;59.88;28.60;;;;;;;;;;4999181;28;20031;-80
2022/12/30 12:42:14;;;;;;;55.50;27.92;;;;;;;;;;4999189;28;20550;-81
2022/12/30 12:44:52;;;;;;;56.17;27.63;;;;;;;;;;5000583;28;20117;-81
2022/12/30 12:47:34;;;;;;;57.30;28.85;;;;;;;;;;5018267;28;20049;-80
2022/12/30 12:50:00;;;;;;;49.00;25.67;;;;;;;;;;5020890;28;20105;-81
2022/12/30 12:52:29;;;;;;;49.40;25.48;;;;;;;;;;5022984;28;20045;-80
2022/12/30 12:54:55;;;;;;;53.50;25.67;;;;;;;;;;5022613;28;20052;-81
2022/12/30 12:57:33;;;;;;;56.13;26.30;;;;;;;;;;5022807;28;20368;-80
2022/12/30 13:00:16;;;;;;;56.70;27.02;;;;;;;;;;5022834;28;20022;-80
2022/12/30 13:03:01;;;;;;;48.78;26.70;;;;;;;;;;5021140;28;20022;-80
2022/12/30 13:05:33;;;;;;;50.45;25.73;;;;;;;;;;5021820;28;20026;-80
2022/12/30 13:08:18;;;;;;;52.47;26.37;;;;;;;;;;5021806;28;20034;-80
2022/12/30 13:11:02;;;;;;;52.85;26.67;;;;;;;;;;5023426;28;20030;-80
2022/12/30 13:13:47;;;;;;;49.30;25.90;;;;;;;;;;5021700;28;20041;-78
2022/12/30 13:16:16;;;;;;;50.53;24.90;;;;;;;;;;5021539;28;20060;-79
2022/12/30 13:18:43;;;;;;;54.25;25.10;;;;;;;;;;5020302;28;20018;-81
2022/12/30 13:21:11;;;;;;;56.95;26.95;;;;;;;;;;5019543;28;20029;-80
2022/12/30 13:23:42;;;;;;;58.70;29.08;;;;;;;;;;5020609;28;20132;-80
2022/12/30 13:26:08;;;;;;;58.45;28.00;;;;;;;;;;5010454;28;20030;-81
2022/12/30 13:28:35;;;;;;;61.63;30.08;;;;;;;;;;5001981;28;20044;-81
2022/12/30 13:31:01;;;;;;;65.72;29.05;;;;;;;;;;4999879;28;20030;-80
2022/12/30 13:33:32;;;;;;;72.30;32.78;;;;;;;;;;5001395;28;20027;-80
2022/12/30 13:36:04;;;;;;;67.38;30.60;;;;;;;;;;5017534;28;20034;-79
2022/12/30 13:38:33;;;;;;;74.60;31.13;;;;;;;;;;5019883;28;20041;-79
2022/12/30 13:41:21;;;;;;;64.78;29.70;;;;;;;;;;5020502;28;20030;-80
2022/12/30 13:43:48;;;;;;;59.63;27.92;;;;;;;;;;5021885;28;20033;-80
2022/12/30 13:46:22;;;;;;;65.10;30.60;;;;;;;;;;5019553;28;20041;-81
2022/12/30 13:48:59;;;;;;;63.20;29.90;;;;;;;;;;5018421;28;20044;-80
2022/12/30 13:51:26;;;;;;;61.83;28.42;;;;;;;;;;5019538;28;20072;-80
2022/12/30 13:53:56;;;;;;;60.63;28.33;;;;;;;;;;5019964;28;20026;-80
2022/12/30 13:56:33;;;;;;;57.25;27.98;;;;;;;;;;5020229;28;20504;-80
2022/12/30 13:59:00;;;;;;;67.93;30.38;;;;;;;;;;5021061;28;20045;-80
2022/12/30 14:01:28;;;;;;;60.67;29.40;;;;;;;;;;5020057;28;20045;-81
2022/12/30 14:04:15;;;;;;;69.35;31.10;;;;;;;;;;5022333;28;20022;-80
2022/12/30 14:06:43;;;;;;;63.00;29.50;;;;;;;;;;5000733;28;20062;-81
2022/12/30 14:09:21;;;;;;;68.50;28.50;;;;;;;;;;5020965;28;20416;-80
2022/12/30 14:12:05;;;;;;;71.00;31.52;;;;;;;;;;5020787;28;20041;-80
2022/12/30 14:14:32;;;;;;;61.95;29.55;;;;;;;;;;5020474;28;20021;-83
2022/12/30 14:17:03;;;;;;;63.78;29.67;;;;;;;;;;5020157;28;20069;-80
2022/12/30 14:19:38;;;;;;;67.95;28.77;;;;;;;;;;5020376;28;20056;-77
2022/12/30 14:22:04;;;;;;;78.80;29.55;;;;;;;;;;5024166;28;20030;-80
2022/12/30 14:24:30;;;;;;;57.63;29.55;;;;;;;;;;5022516;28;20022;-79
2022/12/30 14:26:57;;;;;;;76.43;31.08;;;;;;;;;;5020061;28;20049;-79
2022/12/30 14:29:26;;;;;;;78.70;30.48;;;;;;;;;;5020274;28;20483;-80
2022/12/30 14:31:54;;;;;;;69.00;29.13;;;;;;;;;;5019427;28;20049;-81
2022/12/30 14:34:26;;;;;;;59.33;29.35;;;;;;;;;;5021526;28;20113;-81
2022/12/30 14:36:57;;;;;;;78.45;31.90;;;;;;;;;;5020447;28;20030;-80
2022/12/30 14:39:23;;;;;;;77.28;29.02;;;;;;;;;;5017665;28;20503;-80
2022/12/30 14:41:49;;;;;;;66.05;28.20;;;;;;;;;;5020219;28;20074;-80
2022/12/30 14:44:15;;;;;;;81.65;30.40;;;;;;;;;;5020454;28;20037;-80
2022/12/30 14:46:41;;;;;;;73.07;29.77;;;;;;;;;;5018048;28;20026;-79
2022/12/30 14:49:26;;;;;;;75.38;29.88;;;;;;;;;;5017749;28;20033;-81
2022/12/30 14:52:01;;;;;;;78.25;30.15;;;;;;;;;;5020047;28;20041;-80
2022/12/30 14:54:29;;;;;;;70.82;28.83;;;;;;;;;;5017905;28;20026;-80
2022/12/30 14:56:56;;;;;;;77.32;30.70;;;;;;;;;;5017606;28;20496;-81
2022/12/30 14:59:23;;;;;;;72.18;28.67;;;;;;;;;;5017275;28;20391;-80
2022/12/30 15:02:09;;;;;;;87.35;29.60;;;;;;;;;;5017606;28;20036;-79
2022/12/30 15:04:36;;;;;;;68.80;28.35;;;;;;;;;;5002616;28;20160;-80
2022/12/30 15:07:02;;;;;;;75.53;29.60;;;;;;;;;;5008132;28;20053;-81
2022/12/30 15:09:28;;;;;;;87.97;31.38;;;;;;;;;;5018526;28;20053;-79
2022/12/30 15:11:57;;;;;;;94.20;32.05;;;;;;;;;;5017630;28;20041;-80
2022/12/30 15:14:23;;;;;;;86.97;32.63;;;;;;;;;;5019591;28;20022;-80
2022/12/30 15:17:19;;;;;;;88.72;31.38;;;;;;;;;;5016891;28;20133;-80
2022/12/30 15:19:45;;;;;;;66.03;29.65;;;;;;;;;;5018957;28;20504;-80
2022/12/30 15:22:12;;;;;;;81.85;30.92;;;;;;;;;;5020801;28;20506;-80
2022/12/30 15:24:42;;;;;;;77.75;31.55;;;;;;;;;;5021912;28;20455;-80
2022/12/30 15:27:18;;;;;;;74.03;30.23;;;;;;;;;;5019714;28;20029;-81
2022/12/30 15:29:44;;;;;;;85.88;35.63;;;;;;;;;;5020283;28;20030;-80